createdAt,value
2023-01-12T00:01:10.703Z,100759.09
2023-01-12T00:03:39.607Z,100775.95
2023-01-12T00:06:09.495Z,100772.02
2023-01-12T00:08:38.586Z,100760.95
2023-01-12T00:11:11.480Z,100758.39
2023-01-12T00:13:39.838Z,100757.55
2023-01-12T00:16:35.987Z,100759.60
2023-01-12T00:19:19.935Z,100739.33
2023-01-12T00:22:09.724Z,100748.18
2023-01-12T00:24:44.314Z,100740.35
2023-01-12T00:27:15.349Z,100737.97
2023-01-12T00:29:43.905Z,100726.21
2023-01-12T00:32:14.847Z,100720.09
2023-01-12T00:34:43.621Z,100719.74
2023-01-12T00:37:12.984Z,100716.52
2023-01-12T00:39:45.893Z,100721.96
2023-01-12T00:42:36.002Z,100727.23
2023-01-12T00:45:23.370Z,100732.85
2023-01-12T00:47:53.795Z,100728.10
2023-01-12T00:50:23.017Z,100733.38
2023-01-12T00:52:51.521Z,100739.34
2023-01-12T00:55:20.899Z,100743.58
2023-01-12T00:57:49.179Z,100743.59
2023-01-12T01:00:18.319Z,100736.61
2023-01-12T01:02:46.760Z,100748.52
2023-01-12T01:05:15.576Z,100751.59
2023-01-12T01:07:44.097Z,100745.12
2023-01-12T01:10:12.700Z,100737.64
2023-01-12T01:12:42.099Z,100729.28
2023-01-12T01:15:10.869Z,100720.42
2023-01-12T01:17:39.159Z,100717.87
2023-01-12T01:20:07.928Z,100724.50
2023-01-12T01:22:39.384Z,100727.41
2023-01-12T01:25:13.618Z,100726.89
2023-01-12T01:27:42.224Z,100726.90
2023-01-12T01:30:11.442Z,100723.33
2023-01-12T01:32:40.620Z,100717.02
2023-01-12T01:35:09.593Z,100716.70
2023-01-12T01:37:38.022Z,100712.60
2023-01-12T01:40:07.267Z,100706.30
2023-01-12T01:42:35.727Z,100714.98
2023-01-12T01:45:06.294Z,100716.17
2023-01-12T01:47:41.381Z,100710.39
2023-01-12T01:50:18.830Z,100711.75
2023-01-12T01:52:53.581Z,100712.27
2023-01-12T01:56:04.915Z,100707.66
2023-01-12T01:58:37.253Z,100703.06
2023-01-12T02:02:02.425Z,100704.60
2023-01-12T02:04:31.660Z,100718.73
2023-01-12T02:07:19.927Z,100718.21
2023-01-12T02:09:48.298Z,100711.07
2023-01-12T02:12:35.494Z,100712.94
2023-01-12T02:15:22.893Z,100699.32
2023-01-12T02:18:19.548Z,100694.04
2023-01-12T02:20:59.459Z,100695.06
2023-01-12T02:24:00.120Z,100694.39
2023-01-12T02:26:50.963Z,100699.16
2023-01-12T02:29:34.433Z,100698.48
2023-01-12T02:32:51.442Z,100689.61
2023-01-12T02:35:55.258Z,100697.44
2023-01-12T02:38:23.573Z,100691.66
2023-01-12T02:41:03.873Z,100681.45
2023-01-12T02:43:35.508Z,100681.28
2023-01-12T02:46:26.002Z,100678.04
2023-01-12T02:49:11.405Z,100675.30
2023-01-12T02:52:14.591Z,100673.10
2023-01-12T02:54:48.277Z,100669.20
2023-01-12T02:57:17.231Z,100670.20
2023-01-12T02:59:46.856Z,100667.14
2023-01-12T03:02:21.879Z,100673.96
2023-01-12T03:05:51.049Z,100678.73
2023-01-12T03:08:45.694Z,100688.93
2023-01-12T03:11:37.440Z,100695.91
2023-01-12T03:14:08.646Z,100689.61
2023-01-12T03:16:57.843Z,100684.67
2023-01-12T03:19:31.347Z,100683.14
2023-01-12T03:22:03.194Z,100685.02
2023-01-12T03:24:50.705Z,100687.23
2023-01-12T03:27:30.321Z,100689.78
2023-01-12T03:30:27.882Z,100687.39
2023-01-12T03:32:57.109Z,100681.42
2023-01-12T03:35:52.173Z,100672.06
2023-01-12T03:39:19.362Z,100674.95
2023-01-12T03:42:03.327Z,100677.16
2023-01-12T03:44:45.261Z,100681.25
2023-01-12T03:47:21.043Z,100686.20
2023-01-12T03:50:12.495Z,100682.95
2023-01-12T03:52:43.807Z,100679.05
2023-01-12T03:55:17.097Z,100682.78
2023-01-12T03:57:47.106Z,100677.67
2023-01-12T04:00:19.669Z,100677.33
2023-01-12T04:02:48.146Z,100670.87
2023-01-12T04:05:17.241Z,100669.52
2023-01-12T04:08:20.434Z,100675.11
2023-01-12T04:10:49.032Z,100678.55
2023-01-12T04:13:17.993Z,100694.70
2023-01-12T04:16:06.471Z,100683.46
2023-01-12T04:18:34.768Z,100674.95
2023-01-12T04:21:04.054Z,100676.83
2023-01-12T04:23:33.339Z,100677.34
2023-01-12T04:26:02.812Z,100683.29
2023-01-12T04:28:52.781Z,100697.95
2023-01-12T04:31:23.493Z,100693.52
2023-01-12T04:33:52.042Z,100687.73
2023-01-12T04:36:21.608Z,100684.16
2023-01-12T04:39:07.108Z,100680.24
2023-01-12T04:42:36.212Z,100691.48
2023-01-12T04:45:05.237Z,100691.30
2023-01-12T04:47:35.116Z,100687.89
2023-01-12T04:50:04.287Z,100690.44
2023-01-12T04:52:33.624Z,100684.15
2023-01-12T04:55:02.162Z,100687.38
2023-01-12T04:57:31.036Z,100698.77
2023-01-12T05:00:19.523Z,100706.80
2023-01-12T05:02:47.998Z,100714.12
2023-01-12T05:05:16.953Z,100719.73
2023-01-12T05:08:04.431Z,100726.73
2023-01-12T05:10:45.785Z,100733.52
2023-01-12T05:13:15.378Z,100727.91
2023-01-12T05:15:46.058Z,100719.05
2023-01-12T05:18:14.582Z,100715.48
2023-01-12T05:20:43.995Z,100717.84
2023-01-12T05:23:17.175Z,100718.87
2023-01-12T05:26:08.841Z,100725.70
2023-01-12T05:28:37.277Z,100728.08
2023-01-12T05:31:13.718Z,100736.58
2023-01-12T05:33:43.426Z,100730.46
2023-01-12T05:36:15.174Z,100722.27
2023-01-12T05:38:43.838Z,100718.69
2023-01-12T05:41:14.830Z,100720.06
2023-01-12T05:43:53.278Z,100725.33
2023-01-12T05:46:23.972Z,100725.00
2023-01-12T05:48:54.144Z,100728.73
2023-01-12T05:51:23.998Z,100736.58
2023-01-12T05:53:53.545Z,100742.02
2023-01-12T05:56:26.094Z,100737.60
2023-01-12T05:58:58.906Z,100739.48
2023-01-12T06:01:29.595Z,100740.48
2023-01-12T06:04:00.384Z,100737.76
2023-01-12T06:06:31.687Z,100731.27
2023-01-12T06:09:01.507Z,100720.20
2023-01-12T06:11:49.109Z,100718.14
2023-01-12T06:14:17.794Z,100718.30
2023-01-12T06:16:46.377Z,100713.02
2023-01-12T06:19:14.843Z,100715.74
2023-01-12T06:21:43.358Z,100716.43
2023-01-12T06:24:11.755Z,100723.07
2023-01-12T06:26:40.445Z,100734.99
2023-01-12T06:29:09.142Z,100736.87
2023-01-12T06:31:39.227Z,100737.02
2023-01-12T06:34:10.466Z,100742.48
2023-01-12T06:36:39.759Z,100735.84
2023-01-12T06:39:09.634Z,100734.98
2023-01-12T06:41:56.765Z,100737.02
2023-01-12T06:44:25.942Z,100749.29
2023-01-12T06:46:54.564Z,100756.11
2023-01-12T06:49:23.268Z,100758.00
2023-01-12T06:51:53.563Z,100764.30
2023-01-12T06:54:23.196Z,100757.48
2023-01-12T06:56:51.603Z,100746.73
2023-01-12T06:59:20.103Z,100756.61
2023-01-12T07:01:48.683Z,100760.88
2023-01-12T07:04:17.207Z,100758.31
2023-01-12T07:06:45.869Z,100760.86
2023-01-12T07:09:14.376Z,100757.12
2023-01-12T07:11:42.999Z,100757.45
2023-01-12T07:14:11.327Z,100756.95
2023-01-12T07:16:40.535Z,100755.07
2023-01-12T07:19:09.948Z,100767.35
2023-01-12T07:21:38.364Z,100769.05
2023-01-12T07:24:07.577Z,100765.30
2023-01-12T07:26:36.429Z,100772.11
2023-01-12T07:29:04.871Z,100775.19
2023-01-12T07:32:12.505Z,100774.16
2023-01-12T07:34:42.087Z,100768.20
2023-01-12T07:37:10.562Z,100767.50
2023-01-12T07:39:40.879Z,100751.97
2023-01-12T07:42:23.727Z,100737.65
2023-01-12T07:45:00.922Z,100751.42
2023-01-12T07:47:30.667Z,100756.19
2023-01-12T07:49:59.739Z,100755.00
2023-01-12T07:52:28.157Z,100745.44
2023-01-12T07:54:58.168Z,100734.36
2023-01-12T07:57:27.855Z,100740.67
2023-01-12T07:59:56.165Z,100745.29
2023-01-12T08:02:24.741Z,100730.14
2023-01-12T08:04:55.076Z,100739.50
2023-01-12T08:07:24.305Z,100741.19
2023-01-12T08:09:52.978Z,100742.35
2023-01-12T08:12:21.804Z,100752.23
2023-01-12T08:14:50.392Z,100755.80
2023-01-12T08:17:45.859Z,100759.91
2023-01-12T08:20:19.064Z,100768.44
2023-01-12T08:22:52.098Z,100771.15
2023-01-12T08:25:27.241Z,100775.89
2023-01-12T08:28:01.301Z,100771.46
2023-01-12T08:30:30.371Z,100764.48
2023-01-12T08:33:20.976Z,100765.34
2023-01-12T08:35:49.818Z,100764.45
2023-01-12T08:38:19.552Z,100764.10
2023-01-12T08:41:09.956Z,100771.42
2023-01-12T08:43:57.224Z,100770.40
2023-01-12T08:46:25.552Z,100763.59
2023-01-12T08:48:54.798Z,100770.74
2023-01-12T08:51:30.866Z,100770.05
2023-01-12T08:54:00.565Z,100773.27
2023-01-12T08:56:29.581Z,100778.02
2023-01-12T08:58:58.592Z,100782.59
2023-01-12T09:01:27.895Z,100781.39
2023-01-12T09:03:57.989Z,100777.96
2023-01-12T09:06:31.006Z,100796.40
2023-01-12T09:09:02.916Z,100803.92
2023-01-12T09:11:32.755Z,100791.44
2023-01-12T09:14:02.114Z,100789.70
2023-01-12T09:16:33.287Z,100783.03
2023-01-12T09:19:03.144Z,100783.17
2023-01-12T09:21:33.518Z,100786.58
2023-01-12T09:24:01.805Z,100781.09
2023-01-12T09:26:32.709Z,100771.48
2023-01-12T09:29:02.612Z,100768.70
2023-01-12T09:31:33.096Z,100772.95
2023-01-12T09:34:01.867Z,100772.77
2023-01-12T09:36:32.967Z,100773.11
2023-01-12T09:39:02.693Z,100768.01
2023-01-12T09:42:13.970Z,100766.09
2023-01-12T09:45:45.804Z,100759.10
2023-01-12T09:48:14.709Z,100751.24
2023-01-12T09:51:09.909Z,100749.16
2023-01-12T09:53:41.227Z,100747.17
2023-01-12T09:56:29.865Z,100733.94
2023-01-12T09:59:22.828Z,100728.88
2023-01-12T10:01:53.578Z,100728.66
2023-01-12T10:04:21.987Z,100725.95
2023-01-12T10:06:50.439Z,100720.45
2023-01-12T10:09:21.890Z,100717.35
2023-01-12T10:12:19.411Z,100719.54
2023-01-12T10:14:53.861Z,100720.20
2023-01-12T10:17:50.813Z,100715.98
2023-01-12T10:20:34.128Z,100708.54
2023-01-12T10:23:10.070Z,100705.11
2023-01-12T10:25:43.528Z,100704.52
2023-01-12T10:28:24.429Z,100700.26
2023-01-12T10:30:56.446Z,100710.16
2023-01-12T10:33:30.488Z,100711.36
2023-01-12T10:36:09.979Z,100709.48
2023-01-12T10:38:56.838Z,100709.77
2023-01-12T10:41:29.809Z,100709.74
2023-01-12T10:44:01.173Z,100705.48
2023-01-12T10:46:34.494Z,100700.55
2023-01-12T10:49:23.934Z,100694.56
2023-01-12T10:51:59.582Z,100686.37
2023-01-12T10:54:34.692Z,100683.28
2023-01-12T10:57:24.438Z,100685.85
2023-01-12T11:00:02.891Z,100689.44
2023-01-12T11:02:44.706Z,100672.51
2023-01-12T11:05:37.024Z,100659.59
2023-01-12T11:08:26.676Z,100652.40
2023-01-12T11:10:57.116Z,100677.57
2023-01-12T11:13:37.053Z,100666.56
2023-01-12T11:16:39.308Z,100659.92
2023-01-12T11:19:33.004Z,100663.30
2023-01-12T11:22:22.164Z,100653.21
2023-01-12T11:25:32.255Z,100647.50
2023-01-12T11:28:33.798Z,100645.23
2023-01-12T11:31:08.397Z,100647.32
2023-01-12T11:34:00.956Z,100642.20
2023-01-12T11:36:37.359Z,100633.92
2023-01-12T11:39:31.700Z,100633.84
2023-01-12T11:42:21.520Z,100638.94
2023-01-12T11:45:15.358Z,100644.42
2023-01-12T11:47:51.853Z,100640.32
2023-01-12T11:50:33.786Z,100642.52
2023-01-12T11:53:05.431Z,100641.60
2023-01-12T11:55:56.892Z,100642.14
2023-01-12T11:58:43.452Z,100640.65
2023-01-12T12:01:34.239Z,100641.98
2023-01-12T12:04:26.140Z,100628.85
2023-01-12T12:07:09.377Z,100633.63
2023-01-12T12:09:53.447Z,100641.45
2023-01-12T12:12:48.207Z,100647.15
2023-01-12T12:15:28.560Z,100641.16
2023-01-12T12:18:17.138Z,100641.48
2023-01-12T12:21:06.062Z,100645.38
2023-01-12T12:23:59.725Z,100641.98
2023-01-12T12:26:36.923Z,100641.48
2023-01-12T12:29:16.193Z,100639.09
2023-01-12T12:32:18.858Z,100636.85
2023-01-12T12:34:47.357Z,100631.87
2023-01-12T12:37:57.157Z,100630.63
2023-01-12T12:41:20.121Z,100634.52
2023-01-12T12:44:37.718Z,100633.96
2023-01-12T12:47:24.113Z,100628.29
2023-01-12T12:49:56.719Z,100620.65
2023-01-12T12:52:29.832Z,100625.90
2023-01-12T12:54:59.574Z,100630.17
2023-01-12T12:57:27.927Z,100627.56
2023-01-12T13:00:00.188Z,100628.07
2023-01-12T13:02:33.889Z,100632.35
2023-01-12T13:05:05.319Z,100633.77
2023-01-12T13:07:37.980Z,100631.20
2023-01-12T13:10:31.527Z,100630.67
2023-01-12T13:13:04.541Z,100636.05
2023-01-12T13:15:37.358Z,100637.07
2023-01-12T13:18:06.487Z,100642.38
2023-01-12T13:20:56.804Z,100644.55
2023-01-12T13:23:46.203Z,100644.38
2023-01-12T13:26:35.884Z,100645.39
2023-01-12T13:29:24.812Z,100646.30
2023-01-12T13:32:27.987Z,100640.48
2023-01-12T13:34:56.431Z,100646.13
2023-01-12T13:37:34.428Z,100646.45
2023-01-12T13:40:28.714Z,100643.68
2023-01-12T13:43:16.227Z,100643.58
2023-01-12T13:46:10.767Z,100640.20
2023-01-12T13:48:46.140Z,100646.55
2023-01-12T13:51:21.159Z,100655.45
2023-01-12T13:54:07.266Z,100644.62
2023-01-12T13:56:35.694Z,100662.36
2023-01-12T13:59:08.082Z,100662.55
2023-01-12T14:01:39.677Z,100658.44
2023-01-12T14:04:14.027Z,100653.27
2023-01-12T14:06:54.502Z,100656.73
2023-01-12T14:09:27.724Z,100651.44
2023-01-12T14:12:34.817Z,100651.63
2023-01-12T14:15:41.491Z,100649.77
2023-01-12T14:18:13.776Z,100659.34
2023-01-12T14:20:52.184Z,100656.26
2023-01-12T14:23:25.009Z,100658.13
2023-01-12T14:26:14.702Z,100661.58
2023-01-12T14:28:52.564Z,100665.34
2023-01-12T14:31:31.908Z,100669.11
2023-01-12T14:34:04.688Z,100670.00
2023-01-12T14:36:45.738Z,100668.79
2023-01-12T14:39:22.155Z,100671.71
2023-01-12T14:42:11.949Z,100660.02
2023-01-12T14:45:13.567Z,100677.55
2023-01-12T14:47:42.195Z,100675.01
2023-01-12T14:50:13.584Z,100675.17
2023-01-12T14:52:46.987Z,100676.54
2023-01-12T14:55:16.381Z,100677.91
2023-01-12T14:57:52.367Z,100678.41
2023-01-12T15:00:27.938Z,100671.63
2023-01-12T15:03:02.068Z,100678.44
2023-01-12T15:05:34.297Z,100678.30
2023-01-12T15:08:19.894Z,100674.23
2023-01-12T15:11:01.067Z,100677.48
2023-01-12T15:13:34.686Z,100673.77
2023-01-12T15:16:23.676Z,100674.96
2023-01-12T15:19:12.443Z,100680.60
2023-01-12T15:22:05.354Z,100676.84
2023-01-12T15:24:54.584Z,100681.05
2023-01-12T15:27:24.028Z,100675.20
2023-01-12T15:29:52.517Z,100673.46
2023-01-12T15:32:46.329Z,100677.56
2023-01-12T15:35:25.994Z,100674.45
2023-01-12T15:37:56.567Z,100673.30
2023-01-12T15:40:26.736Z,100671.55
2023-01-12T15:42:55.417Z,100668.66
2023-01-12T15:45:32.922Z,100676.12
2023-01-12T15:48:02.777Z,100679.36
2023-01-12T15:50:32.351Z,100683.30
2023-01-12T15:53:01.935Z,100679.88
2023-01-12T15:55:36.361Z,100672.88
2023-01-12T15:58:04.792Z,100675.10
2023-01-12T16:00:34.237Z,100676.79
2023-01-12T16:03:05.009Z,100680.71
2023-01-12T16:05:33.332Z,100683.31
2023-01-12T16:08:01.580Z,100680.05
2023-01-12T16:10:30.636Z,100682.63
2023-01-12T16:13:07.584Z,100684.35
2023-01-12T16:15:36.005Z,100688.95
2023-01-12T16:18:04.418Z,100688.43
2023-01-12T16:20:32.636Z,100691.33
2023-01-12T16:23:00.870Z,100693.33
2023-01-12T16:25:29.129Z,100691.61
2023-01-12T16:27:57.597Z,100694.86
2023-01-12T16:30:25.977Z,100698.27
2023-01-12T16:32:57.668Z,100704.27
2023-01-12T16:35:26.130Z,100702.39
2023-01-12T16:38:14.464Z,100699.61
2023-01-12T16:40:45.404Z,100698.73
2023-01-12T16:43:13.915Z,100700.11
2023-01-12T16:45:42.787Z,100694.17
2023-01-12T16:48:11.112Z,100698.63
2023-01-12T16:50:41.328Z,100697.06
2023-01-12T16:53:11.654Z,100689.86
2023-01-12T16:55:45.137Z,100691.05
2023-01-12T16:58:15.339Z,100693.60
2023-01-12T17:00:43.695Z,100688.77
2023-01-12T17:03:14.566Z,100688.21
2023-01-12T17:05:43.293Z,100686.83
2023-01-12T17:08:11.557Z,100690.58
2023-01-12T17:10:40.244Z,100690.41
2023-01-12T17:13:08.506Z,100689.70
2023-01-12T17:15:37.448Z,100691.06
2023-01-12T17:18:06.276Z,100691.90
2023-01-12T17:20:35.048Z,100695.15
2023-01-12T17:23:03.727Z,100693.09
2023-01-12T17:25:33.578Z,100690.02
2023-01-12T17:28:02.025Z,100687.44
2023-01-12T17:30:31.790Z,100690.33
2023-01-12T17:33:00.044Z,100693.23
2023-01-12T17:35:28.339Z,100696.66
2023-01-12T17:37:56.613Z,100694.95
2023-01-12T17:40:27.486Z,100697.52
2023-01-12T17:43:07.816Z,100700.42
2023-01-12T17:45:43.820Z,100700.93
2023-01-12T17:48:13.249Z,100704.52
2023-01-12T17:50:41.868Z,100704.70
2023-01-12T17:53:17.567Z,100704.72
2023-01-12T17:55:48.746Z,100709.53
2023-01-12T17:58:18.830Z,100710.60
2023-01-12T18:00:47.422Z,100710.45
2023-01-12T18:03:16.036Z,100711.67
2023-01-12T18:05:47.075Z,100712.85
2023-01-12T18:08:16.185Z,100711.30
2023-01-12T18:10:45.460Z,100707.91
2023-01-12T18:13:14.426Z,100713.41
2023-01-12T18:15:43.384Z,100709.31
2023-01-12T18:18:11.825Z,100714.62
2023-01-12T18:20:40.163Z,100713.77
2023-01-12T18:23:08.485Z,100710.20
2023-01-12T18:25:37.251Z,100710.70
2023-01-12T18:28:06.185Z,100711.55
2023-01-12T18:30:35.161Z,100708.85
2023-01-12T18:33:10.331Z,100711.92
2023-01-12T18:35:39.241Z,100707.67
2023-01-12T18:38:08.183Z,100709.23
2023-01-12T18:40:36.524Z,100708.38
2023-01-12T18:43:04.767Z,100710.39
2023-01-12T18:45:33.565Z,100710.19
2023-01-12T18:48:20.405Z,100707.95
2023-01-12T18:51:11.699Z,100705.91
2023-01-12T18:53:41.139Z,100710.52
2023-01-12T18:56:10.268Z,100710.00
2023-01-12T18:58:40.208Z,100711.03
2023-01-12T19:01:13.798Z,100686.92
2023-01-12T19:03:42.218Z,100710.68
2023-01-12T19:06:28.944Z,100710.52
2023-01-12T19:09:15.865Z,100702.98
2023-01-12T19:11:44.853Z,100702.09
2023-01-12T19:14:31.820Z,100702.10
2023-01-12T19:17:19.070Z,100709.48
2023-01-12T19:19:47.406Z,100713.75
2023-01-12T19:22:34.478Z,100713.27
2023-01-12T19:25:21.881Z,100715.17
2023-01-12T19:28:08.824Z,100715.17
2023-01-12T19:30:38.381Z,100713.42
2023-01-12T19:33:09.030Z,100712.22
2023-01-12T19:35:38.004Z,100718.73
2023-01-12T19:38:06.436Z,100717.70
2023-01-12T19:40:44.575Z,100717.20
2023-01-12T19:43:20.589Z,100720.27
2023-01-12T19:45:59.115Z,100721.30
2023-01-12T19:48:27.945Z,100716.17
2023-01-12T19:50:56.355Z,100721.64
2023-01-12T19:53:28.811Z,100721.47
2023-01-12T19:55:57.150Z,100723.52
2023-01-12T19:58:27.525Z,100723.34
2023-01-12T20:01:00.902Z,100724.16
2023-01-12T20:03:29.252Z,100719.55
2023-01-12T20:05:57.914Z,100722.48
2023-01-12T20:08:26.477Z,100724.21
2023-01-12T20:10:59.744Z,100718.56
2023-01-12T20:13:28.213Z,100718.09
2023-01-12T20:15:57.821Z,100719.63
2023-01-12T20:18:35.967Z,100718.62
2023-01-12T20:21:12.050Z,100719.71
2023-01-12T20:23:46.301Z,100716.64
2023-01-12T20:26:15.858Z,100706.64
2023-01-12T20:28:45.203Z,100717.00
2023-01-12T20:31:16.113Z,100711.38
2023-01-12T20:33:44.623Z,100711.83
2023-01-12T20:36:15.563Z,100685.23
2023-01-12T20:38:46.087Z,100715.42
2023-01-12T20:41:15.201Z,100713.55
2023-01-12T20:43:45.985Z,100713.58
2023-01-12T20:46:17.322Z,100714.63
2023-01-12T20:48:45.695Z,100716.02
2023-01-12T20:51:32.608Z,100715.52
2023-01-12T20:54:03.352Z,100717.22
2023-01-12T20:56:37.446Z,100712.27
2023-01-12T20:59:06.767Z,100710.05
2023-01-12T21:01:35.213Z,100711.10
2023-01-12T21:04:03.895Z,100710.27
2023-01-12T21:06:32.343Z,100709.91
2023-01-12T21:09:00.816Z,100706.64
2023-01-12T21:11:29.712Z,100714.70
2023-01-12T21:13:59.095Z,100710.42
2023-01-12T21:16:31.603Z,100708.37
2023-01-12T21:19:04.077Z,100706.84
2023-01-12T21:21:50.153Z,100705.98
2023-01-12T21:24:18.480Z,100706.00
2023-01-12T21:26:48.713Z,100701.39
2023-01-12T21:29:17.918Z,100701.89
2023-01-12T21:31:47.777Z,100696.77
2023-01-12T21:34:16.259Z,100693.87
2023-01-12T21:36:46.417Z,100695.06
2023-01-12T21:39:16.156Z,100693.36
2023-01-12T21:42:03.045Z,100691.34
2023-01-12T21:44:31.684Z,100690.52
2023-01-12T21:47:00.008Z,100690.02
2023-01-12T21:49:28.324Z,100692.04
2023-01-12T21:51:57.181Z,100689.98
2023-01-12T21:54:26.285Z,100693.05
2023-01-12T21:56:54.585Z,100692.17
2023-01-12T21:59:22.991Z,100687.55
2023-01-12T22:01:51.732Z,100686.53
2023-01-12T22:04:20.394Z,100682.43
2023-01-12T22:06:52.667Z,100681.06
2023-01-12T22:09:21.337Z,100680.05
2023-01-12T22:11:49.690Z,100672.54
2023-01-12T22:14:18.214Z,100668.27
2023-01-12T22:16:46.630Z,100662.83
2023-01-12T22:19:15.036Z,100659.56
2023-01-12T22:21:44.430Z,100660.60
2023-01-12T22:24:12.875Z,100655.63
2023-01-12T22:26:41.870Z,100657.16
2023-01-12T22:29:10.421Z,100654.26
2023-01-12T22:31:39.224Z,100653.59
2023-01-12T22:34:08.420Z,100650.39
2023-01-12T22:36:43.115Z,100648.35
2023-01-12T22:39:12.505Z,100645.98
2023-01-12T22:41:41.302Z,100643.93
2023-01-12T22:44:09.758Z,100640.36
2023-01-12T22:46:38.692Z,100634.70
2023-01-12T22:49:07.513Z,100635.91
2023-01-12T22:51:36.362Z,100635.02
2023-01-12T22:54:08.707Z,100630.38
2023-01-12T22:56:41.022Z,100628.50
2023-01-12T22:59:09.999Z,100626.10
2023-01-12T23:01:39.006Z,100623.88
2023-01-12T23:04:13.622Z,100619.77
2023-01-12T23:06:42.036Z,100617.04
2023-01-12T23:09:12.023Z,100614.45
2023-01-12T23:11:40.515Z,100615.13
2023-01-12T23:14:09.055Z,100607.25
2023-01-12T23:16:37.490Z,100604.19
2023-01-12T23:19:05.721Z,100606.07
2023-01-12T23:21:35.861Z,100603.85
2023-01-12T23:24:05.402Z,100601.48
2023-01-12T23:26:45.663Z,100597.03
2023-01-12T23:29:16.357Z,100592.93
2023-01-12T23:31:44.643Z,100595.32
2023-01-12T23:34:13.708Z,100589.71
2023-01-12T23:36:42.452Z,100589.38
2023-01-12T23:39:12.510Z,100593.83
2023-01-12T23:41:40.740Z,100598.27
2023-01-12T23:44:10.236Z,100596.39
2023-01-12T23:46:43.913Z,100590.74
2023-01-12T23:49:12.242Z,100589.73
2023-01-12T23:51:40.690Z,100589.20
2023-01-12T23:54:13.339Z,100590.08
2023-01-12T23:56:46.315Z,100588.18
2023-01-12T23:59:15.783Z,100586.65
